Аэропорт: Нижневартовск. Нижневартовск

ICAO: USNN

METAR:
2019-07-23 18:00:00
USNN 231800Z 35003MPS CAVOK 17/13 Q1003 R03/0///65 NOSIG RMK QFE748
METAR:
2019-07-23 17:00:00
TAF USNN 231700Z 2318/2418 35003MPS 9999 SCT030CB TEMPO 2318/2324 2000 BR SCT007 BECMG 2400/2402 5000 -SHRA SCT015CB BKN050